sensor_id;sensor_type;location;lat;lon;timestamp;pressure;altitude;pressure_sealevel;temperature;humidity
73700;BME280;62005;50.082;8.988;2024-02-26T00:00:30;98774.56;;;8.58;74.90
73700;BME280;62005;50.082;8.988;2024-02-26T00:02:56;98752.41;;;8.51;75.07
73700;BME280;62005;50.082;8.988;2024-02-26T00:05:21;98777.81;;;8.60;74.35
73700;BME280;62005;50.082;8.988;2024-02-26T00:07:47;98759.91;;;8.49;75.13
73700;BME280;62005;50.082;8.988;2024-02-26T00:10:15;98762.66;;;8.54;74.90
73700;BME280;62005;50.082;8.988;2024-02-26T00:12:40;98774.56;;;8.58;75.21
73700;BME280;62005;50.082;8.988;2024-02-26T00:15:07;98762.66;;;8.54;74.96
73700;BME280;62005;50.082;8.988;2024-02-26T00:17:33;98750.09;;;8.59;75.25
73700;BME280;62005;50.082;8.988;2024-02-26T00:19:58;98745.69;;;8.53;76.10
73700;BME280;62005;50.082;8.988;2024-02-26T00:22:24;98756.78;;;8.57;75.89
73700;BME280;62005;50.082;8.988;2024-02-26T00:24:49;98762.16;;;8.57;76.00
73700;BME280;62005;50.082;8.988;2024-02-26T00:27:14;98764.28;;;8.55;74.57
73700;BME280;62005;50.082;8.988;2024-02-26T00:29:40;98757.84;;;8.56;75.23
73700;BME280;62005;50.082;8.988;2024-02-26T00:32:05;98766.00;;;8.61;75.65
73700;BME280;62005;50.082;8.988;2024-02-26T00:34:31;98748.13;;;8.55;75.23
73700;BME280;62005;50.082;8.988;2024-02-26T00:36:56;98754.00;;;8.52;75.82
73700;BME280;62005;50.082;8.988;2024-02-26T00:39:22;98749.13;;;8.49;75.70
73700;BME280;62005;50.082;8.988;2024-02-26T00:41:47;98767.56;;;8.57;74.88
73700;BME280;62005;50.082;8.988;2024-02-26T00:44:13;98751.91;;;8.54;75.58
73700;BME280;62005;50.082;8.988;2024-02-26T00:46:38;98743.25;;;8.52;74.96
73700;BME280;62005;50.082;8.988;2024-02-26T00:49:03;98760.56;;;8.56;75.11
73700;BME280;62005;50.082;8.988;2024-02-26T00:51:30;98753.50;;;8.55;74.91
73700;BME280;62005;50.082;8.988;2024-02-26T00:53:56;98757.28;;;8.54;74.88
73700;BME280;62005;50.082;8.988;2024-02-26T00:56:21;98734.28;;;8.46;74.83
73700;BME280;62005;50.082;8.988;2024-02-26T00:58:47;98754.59;;;8.54;75.79
73700;BME280;62005;50.082;8.988;2024-02-26T01:01:12;98745.53;;;8.43;75.99
73700;BME280;62005;50.082;8.988;2024-02-26T01:03:38;98755.63;;;8.53;75.87
73700;BME280;62005;50.082;8.988;2024-02-26T01:06:04;98758.56;;;8.51;76.05
73700;BME280;62005;50.082;8.988;2024-02-26T01:08:29;98753.94;;;8.47;76.53
73700;BME280;62005;50.082;8.988;2024-02-26T01:10:54;98743.94;;;8.42;76.06
73700;BME280;62005;50.082;8.988;2024-02-26T01:13:20;98742.97;;;8.32;76.54
73700;BME280;62005;50.082;8.988;2024-02-26T01:15:45;98723.41;;;8.20;77.64
73700;BME280;62005;50.082;8.988;2024-02-26T01:18:11;98721.59;;;8.09;78.37
73700;BME280;62005;50.082;8.988;2024-02-26T01:20:37;98722.16;;;8.11;78.17
73700;BME280;62005;50.082;8.988;2024-02-26T01:23:02;98711.91;;;8.08;78.28
73700;BME280;62005;50.082;8.988;2024-02-26T01:25:28;98686.22;;;8.00;78.98
73700;BME280;62005;50.082;8.988;2024-02-26T01:27:53;98667.31;;;7.95;79.07
73700;BME280;62005;50.082;8.988;2024-02-26T01:30:18;98726.31;;;8.02;78.76
73700;BME280;62005;50.082;8.988;2024-02-26T01:32:44;98731.88;;;8.12;78.04
73700;BME280;62005;50.082;8.988;2024-02-26T01:35:10;98716.22;;;8.09;78.79
73700;BME280;62005;50.082;8.988;2024-02-26T01:37:37;98700.91;;;8.09;78.81
73700;BME280;62005;50.082;8.988;2024-02-26T01:40:03;98685.06;;;8.13;78.07
73700;BME280;62005;50.082;8.988;2024-02-26T01:42:30;98700.56;;;8.06;77.17
73700;BME280;62005;50.082;8.988;2024-02-26T01:44:59;98715.72;;;8.12;77.63
73700;BME280;62005;50.082;8.988;2024-02-26T01:47:25;98722.56;;;8.19;77.61
73700;BME280;62005;50.082;8.988;2024-02-26T01:49:52;98722.25;;;8.16;77.61
73700;BME280;62005;50.082;8.988;2024-02-26T01:52:18;98715.25;;;8.15;77.16
73700;BME280;62005;50.082;8.988;2024-02-26T01:54:45;98731.56;;;8.25;77.09
73700;BME280;62005;50.082;8.988;2024-02-26T01:57:12;98732.19;;;8.32;76.67
73700;BME280;62005;50.082;8.988;2024-02-26T01:59:39;98745.31;;;8.28;77.02
73700;BME280;62005;50.082;8.988;2024-02-26T02:02:07;98721.59;;;8.25;77.24
73700;BME280;62005;50.082;8.988;2024-02-26T02:04:33;98722.50;;;8.31;77.15
73700;BME280;62005;50.082;8.988;2024-02-26T02:06:59;98726.47;;;8.28;77.97
73700;BME280;62005;50.082;8.988;2024-02-26T02:09:26;98700.06;;;8.25;77.19
73700;BME280;62005;50.082;8.988;2024-02-26T02:11:52;98713.28;;;8.27;77.93
73700;BME280;62005;50.082;8.988;2024-02-26T02:14:18;98705.34;;;8.37;77.63
73700;BME280;62005;50.082;8.988;2024-02-26T02:16:44;98669.41;;;8.26;77.12
73700;BME280;62005;50.082;8.988;2024-02-26T02:19:09;98674.13;;;8.36;76.46
73700;BME280;62005;50.082;8.988;2024-02-26T02:21:34;98688.16;;;8.38;77.31
73700;BME280;62005;50.082;8.988;2024-02-26T02:24:00;98685.94;;;8.35;77.82
73700;BME280;62005;50.082;8.988;2024-02-26T02:26:25;98705.09;;;8.38;77.23
73700;BME280;62005;50.082;8.988;2024-02-26T02:28:51;98688.16;;;8.38;76.53
73700;BME280;62005;50.082;8.988;2024-02-26T02:31:17;98708.84;;;8.37;77.54
73700;BME280;62005;50.082;8.988;2024-02-26T02:33:42;98730.22;;;8.44;77.56
73700;BME280;62005;50.082;8.988;2024-02-26T02:36:08;98739.53;;;8.36;77.04
73700;BME280;62005;50.082;8.988;2024-02-26T02:38:38;98708.88;;;8.21;77.95
73700;BME280;62005;50.082;8.988;2024-02-26T02:41:04;98706.91;;;8.33;77.88
73700;BME280;62005;50.082;8.988;2024-02-26T02:43:29;98736.09;;;8.41;77.75
73700;BME280;62005;50.082;8.988;2024-02-26T02:45:54;98725.84;;;8.38;78.21
73700;BME280;62005;50.082;8.988;2024-02-26T02:48:20;98725.09;;;8.42;77.92
73700;BME280;62005;50.082;8.988;2024-02-26T02:50:45;98739.84;;;8.40;78.39
73700;BME280;62005;50.082;8.988;2024-02-26T02:53:11;98718.31;;;8.40;78.56
73700;BME280;62005;50.082;8.988;2024-02-26T02:55:36;98704.69;;;8.30;78.06
73700;BME280;62005;50.082;8.988;2024-02-26T02:58:01;98698.09;;;8.21;78.51
73700;BME280;62005;50.082;8.988;2024-02-26T03:00:27;98751.09;;;8.20;79.08
73700;BME280;62005;50.082;8.988;2024-02-26T03:02:52;98753.38;;;8.12;79.01
73700;BME280;62005;50.082;8.988;2024-02-26T03:05:18;98727.16;;;8.02;79.36
73700;BME280;62005;50.082;8.988;2024-02-26T03:07:43;98741.00;;;8.11;78.93
73700;BME280;62005;50.082;8.988;2024-02-26T03:10:09;98748.84;;;8.12;77.84
73700;BME280;62005;50.082;8.988;2024-02-26T03:12:34;98738.31;;;8.11;78.63
73700;BME280;62005;50.082;8.988;2024-02-26T03:15:00;98756.16;;;8.17;78.71
73700;BME280;62005;50.082;8.988;2024-02-26T03:17:28;98754.03;;;8.19;78.72
73700;BME280;62005;50.082;8.988;2024-02-26T03:19:54;98739.94;;;8.12;76.78
73700;BME280;62005;50.082;8.988;2024-02-26T03:22:19;98747.03;;;8.18;77.71
73700;BME280;62005;50.082;8.988;2024-02-26T03:24:45;98764.31;;;8.22;77.84
73700;BME280;62005;50.082;8.988;2024-02-26T03:27:11;98740.84;;;8.17;77.32
73700;BME280;62005;50.082;8.988;2024-02-26T03:29:39;98761.63;;;8.22;77.19
73700;BME280;62005;50.082;8.988;2024-02-26T03:32:05;98755.69;;;8.20;76.02
73700;BME280;62005;50.082;8.988;2024-02-26T03:34:32;98748.00;;;8.12;76.98
73700;BME280;62005;50.082;8.988;2024-02-26T03:37:00;98754.03;;;8.19;77.55
73700;BME280;62005;50.082;8.988;2024-02-26T03:39:25;98748.66;;;8.19;76.81
73700;BME280;62005;50.082;8.988;2024-02-26T03:41:50;98756.09;;;8.12;76.81
73700;BME280;62005;50.082;8.988;2024-02-26T03:44:16;98754.53;;;8.16;77.08
73700;BME280;62005;50.082;8.988;2024-02-26T03:46:41;98752.94;;;8.15;77.23
73700;BME280;62005;50.082;8.988;2024-02-26T03:49:10;98756.22;;;8.22;77.21
73700;BME280;62005;50.082;8.988;2024-02-26T03:51:35;98764.81;;;8.19;76.49
73700;BME280;62005;50.082;8.988;2024-02-26T03:54:01;98768.06;;;8.21;77.06
73700;BME280;62005;50.082;8.988;2024-02-26T03:56:26;98775.06;;;8.22;76.34
73700;BME280;62005;50.082;8.988;2024-02-26T03:58:52;98774.22;;;8.16;76.71
73700;BME280;62005;50.082;8.988;2024-02-26T04:01:18;98785.50;;;8.18;77.55
73700;BME280;62005;50.082;8.988;2024-02-26T04:03:43;98778.19;;;8.14;77.07
73700;BME280;62005;50.082;8.988;2024-02-26T04:06:09;98773.22;;;8.06;76.95
73700;BME280;62005;50.082;8.988;2024-02-26T04:08:43;98769.38;;;8.02;77.11
73700;BME280;62005;50.082;8.988;2024-02-26T04:11:08;98744.94;;;7.86;76.67
73700;BME280;62005;50.082;8.988;2024-02-26T04:13:34;98769.88;;;7.98;77.33
73700;BME280;62005;50.082;8.988;2024-02-26T04:16:00;98772.06;;;8.02;76.61
73700;BME280;62005;50.082;8.988;2024-02-26T04:18:27;98773.78;;;8.08;77.33
73700;BME280;62005;50.082;8.988;2024-02-26T04:20:53;98778.84;;;8.04;77.63
73700;BME280;62005;50.082;8.988;2024-02-26T04:23:19;98775.91;;;8.06;77.21
73700;BME280;62005;50.082;8.988;2024-02-26T04:25:44;98777.53;;;8.07;77.43
73700;BME280;62005;50.082;8.988;2024-02-26T04:28:10;98768.91;;;8.05;77.39
73700;BME280;62005;50.082;8.988;2024-02-26T04:30:35;98772.16;;;8.07;77.01
73700;BME280;62005;50.082;8.988;2024-02-26T04:33:01;98771.34;;;8.06;77.92
73700;BME280;62005;50.082;8.988;2024-02-26T04:35:26;98773.22;;;8.06;77.81
73700;BME280;62005;50.082;8.988;2024-02-26T04:37:51;98784.06;;;8.11;78.05
73700;BME280;62005;50.082;8.988;2024-02-26T04:40:17;98766.94;;;8.00;77.59
73700;BME280;62005;50.082;8.988;2024-02-26T04:42:42;98778.59;;;8.06;77.49
73700;BME280;62005;50.082;8.988;2024-02-26T04:45:08;98773.13;;;8.01;78.12
73700;BME280;62005;50.082;8.988;2024-02-26T04:47:34;98779.69;;;8.05;78.08
73700;BME280;62005;50.082;8.988;2024-02-26T04:49:59;98775.34;;;8.04;78.07
73700;BME280;62005;50.082;8.988;2024-02-26T04:52:25;98771.03;;;8.03;78.21
73700;BME280;62005;50.082;8.988;2024-02-26T04:54:51;98783.06;;;8.00;77.61
73700;BME280;62005;50.082;8.988;2024-02-26T04:57:16;98772.00;;;7.97;77.57
73700;BME280;62005;50.082;8.988;2024-02-26T04:59:43;98776.31;;;7.97;78.11
73700;BME280;62005;50.082;8.988;2024-02-26T05:02:10;98783.91;;;8.01;78.20
73700;BME280;62005;50.082;8.988;2024-02-26T05:04:35;98787.66;;;8.00;78.12
73700;BME280;62005;50.082;8.988;2024-02-26T05:07:01;98785.47;;;7.97;78.01
73700;BME280;62005;50.082;8.988;2024-02-26T05:09:26;98791.41;;;7.98;78.64
73700;BME280;62005;50.082;8.988;2024-02-26T05:11:52;98784.41;;;7.97;78.49
73700;BME280;62005;50.082;8.988;2024-02-26T05:14:17;98786.59;;;8.01;79.00
73700;BME280;62005;50.082;8.988;2024-02-26T05:16:43;98780.63;;;7.98;79.39
73700;BME280;62005;50.082;8.988;2024-02-26T05:19:08;98771.84;;;7.86;79.79
73700;BME280;62005;50.082;8.988;2024-02-26T05:21:34;98795.16;;;7.97;79.85
73700;BME280;62005;50.082;8.988;2024-02-26T05:23:59;98788.16;;;7.97;79.95
73700;BME280;62005;50.082;8.988;2024-02-26T05:26:25;98795.66;;;7.94;79.86
73700;BME280;62005;50.082;8.988;2024-02-26T05:28:50;98788.28;;;7.90;79.69
73700;BME280;62005;50.082;8.988;2024-02-26T05:31:16;98799.38;;;7.93;79.20
73700;BME280;62005;50.082;8.988;2024-02-26T05:33:42;98791.88;;;7.95;78.61
73700;BME280;62005;50.082;8.988;2024-02-26T05:36:08;98805.91;;;7.97;78.45
73700;BME280;62005;50.082;8.988;2024-02-26T05:38:33;98792.06;;;7.89;77.71
73700;BME280;62005;50.082;8.988;2024-02-26T05:40:59;98796.16;;;7.91;78.07
73700;BME280;62005;50.082;8.988;2024-02-26T05:43:25;98794.16;;;7.87;78.36
73700;BME280;62005;50.082;8.988;2024-02-26T05:45:51;98811.22;;;7.92;78.01
73700;BME280;62005;50.082;8.988;2024-02-26T05:48:17;98803.97;;;7.93;77.97
73700;BME280;62005;50.082;8.988;2024-02-26T05:50:44;98810.72;;;7.95;77.90
73700;BME280;62005;50.082;8.988;2024-02-26T05:53:10;98808.53;;;7.92;77.00
73700;BME280;62005;50.082;8.988;2024-02-26T05:55:35;98810.97;;;7.94;76.93
73700;BME280;62005;50.082;8.988;2024-02-26T05:58:01;98807.94;;;7.90;76.96
73700;BME280;62005;50.082;8.988;2024-02-26T06:00:26;98798.75;;;7.86;77.34
73700;BME280;62005;50.082;8.988;2024-02-26T06:02:51;98798.09;;;7.79;77.42
73700;BME280;62005;50.082;8.988;2024-02-26T06:05:17;98825.25;;;7.94;77.22
73700;BME280;62005;50.082;8.988;2024-02-26T06:07:42;98822.72;;;7.88;76.09
73700;BME280;62005;50.082;8.988;2024-02-26T06:10:08;98819.59;;;7.79;76.36
73700;BME280;62005;50.082;8.988;2024-02-26T06:12:36;98826.25;;;7.77;76.73
73700;BME280;62005;50.082;8.988;2024-02-26T06:15:02;98836.41;;;7.86;76.87
73700;BME280;62005;50.082;8.988;2024-02-26T06:17:28;98825.81;;;7.80;77.33
73700;BME280;62005;50.082;8.988;2024-02-26T06:19:53;98830.34;;;7.79;77.37
73700;BME280;62005;50.082;8.988;2024-02-26T06:22:19;98839.88;;;7.70;77.31
73700;BME280;62005;50.082;8.988;2024-02-26T06:24:44;98847.84;;;7.65;78.28
73700;BME280;62005;50.082;8.988;2024-02-26T06:27:10;98836.97;;;7.60;79.36
73700;BME280;62005;50.082;8.988;2024-02-26T06:29:35;98848.56;;;7.61;79.01
73700;BME280;62005;50.082;8.988;2024-02-26T06:32:00;98854.28;;;7.64;79.04
73700;BME280;62005;50.082;8.988;2024-02-26T06:34:26;98865.97;;;7.70;79.17
73700;BME280;62005;50.082;8.988;2024-02-26T06:36:51;98859.66;;;7.64;80.10
73700;BME280;62005;50.082;8.988;2024-02-26T06:39:17;98869.94;;;7.67;80.99
73700;BME280;62005;50.082;8.988;2024-02-26T06:41:43;98864.84;;;7.54;82.17
73700;BME280;62005;50.082;8.988;2024-02-26T06:44:08;98874.38;;;7.62;82.21
73700;BME280;62005;50.082;8.988;2024-02-26T06:46:34;98864.34;;;7.57;82.53
73700;BME280;62005;50.082;8.988;2024-02-26T06:49:00;98880.97;;;7.54;82.82
73700;BME280;62005;50.082;8.988;2024-02-26T06:51:25;98851.00;;;7.34;83.86
73700;BME280;62005;50.082;8.988;2024-02-26T06:53:51;98870.94;;;7.50;84.48
73700;BME280;62005;50.082;8.988;2024-02-26T06:56:16;98872.59;;;7.39;85.05
73700;BME280;62005;50.082;8.988;2024-02-26T06:58:42;98846.28;;;7.13;85.33
73700;BME280;62005;50.082;8.988;2024-02-26T07:01:08;98881.59;;;7.45;85.30
73700;BME280;62005;50.082;8.988;2024-02-26T07:03:34;98864.44;;;7.34;86.27
73700;BME280;62005;50.082;8.988;2024-02-26T07:05:59;98893.69;;;7.59;86.01
73700;BME280;62005;50.082;8.988;2024-02-26T07:08:25;98859.75;;;7.41;86.52
73700;BME280;62005;50.082;8.988;2024-02-26T07:10:50;98878.88;;;7.56;86.72
73700;BME280;62005;50.082;8.988;2024-02-26T07:13:16;98869.63;;;7.52;87.49
73700;BME280;62005;50.082;8.988;2024-02-26T07:18:50;98895.69;;;7.63;88.16
73700;BME280;62005;50.082;8.988;2024-02-26T07:21:15;98898.94;;;7.65;89.27
73700;BME280;62005;50.082;8.988;2024-02-26T07:23:41;98905.13;;;7.66;90.37
73700;BME280;62005;50.082;8.988;2024-02-26T07:26:06;98905.63;;;7.63;91.37
73700;BME280;62005;50.082;8.988;2024-02-26T07:28:33;98909.13;;;7.63;90.64
73700;BME280;62005;50.082;8.988;2024-02-26T07:30:59;98906.09;;;7.60;91.41
73700;BME280;62005;50.082;8.988;2024-02-26T07:33:24;98899.66;;;7.61;92.34
73700;BME280;62005;50.082;8.988;2024-02-26T07:35:49;98920.00;;;7.68;93.47
73700;BME280;62005;50.082;8.988;2024-02-26T07:38:15;98907.25;;;7.64;94.24
73700;BME280;62005;50.082;8.988;2024-02-26T07:40:40;98921.63;;;7.69;95.48
73700;BME280;62005;50.082;8.988;2024-02-26T07:43:06;98919.75;;;7.70;95.38
73700;BME280;62005;50.082;8.988;2024-02-26T07:45:31;98905.75;;;7.56;94.13
73700;BME280;62005;50.082;8.988;2024-02-26T07:47:56;98920.94;;;7.62;95.59
73700;BME280;62005;50.082;8.988;2024-02-26T07:50:22;98920.94;;;7.62;96.32
73700;BME280;62005;50.082;8.988;2024-02-26T07:52:47;98919.31;;;7.61;96.81
73700;BME280;62005;50.082;8.988;2024-02-26T07:55:13;98936.59;;;7.65;98.25
73700;BME280;62005;50.082;8.988;2024-02-26T07:57:42;98922.22;;;7.60;98.55
73700;BME280;62005;50.082;8.988;2024-02-26T08:00:08;98912.41;;;7.54;97.87
73700;BME280;62005;50.082;8.988;2024-02-26T08:02:35;98937.16;;;7.67;99.25
73700;BME280;62005;50.082;8.988;2024-02-26T08:05:01;98937.06;;;7.62;100.00
73700;BME280;62005;50.082;8.988;2024-02-26T08:07:26;98925.16;;;7.58;99.48
73700;BME280;62005;50.082;8.988;2024-02-26T08:09:52;98934.38;;;7.62;100.00
73700;BME280;62005;50.082;8.988;2024-02-26T08:12:17;98949.47;;;7.63;100.00
73700;BME280;62005;50.082;8.988;2024-02-26T08:14:42;98927.28;;;7.56;100.00
73700;BME280;62005;50.082;8.988;2024-02-26T08:17:09;98940.34;;;7.64;100.00
73700;BME280;62005;50.082;8.988;2024-02-26T08:19:34;98941.63;;;7.62;100.00
73700;BME280;62005;50.082;8.988;2024-02-26T08:22:01;98951.78;;;7.71;100.00
73700;BME280;62005;50.082;8.988;2024-02-26T08:24:26;98953.66;;;7.71;100.00
73700;BME280;62005;50.082;8.988;2024-02-26T08:26:52;98939.84;;;7.67;100.00
73700;BME280;62005;50.082;8.988;2024-02-26T08:29:17;98955.03;;;7.73;100.00
73700;BME280;62005;50.082;8.988;2024-02-26T08:31:42;98937.75;;;7.69;100.00
73700;BME280;62005;50.082;8.988;2024-02-26T08:34:08;98948.59;;;7.74;100.00
73700;BME280;62005;50.082;8.988;2024-02-26T08:36:34;98949.66;;;7.73;100.00
73700;BME280;62005;50.082;8.988;2024-02-26T08:38:59;98944.25;;;7.73;100.00
73700;BME280;62005;50.082;8.988;2024-02-26T08:41:25;98946.66;;;7.70;100.00
73700;BME280;62005;50.082;8.988;2024-02-26T08:43:50;98951.09;;;7.64;100.00
73700;BME280;62005;50.082;8.988;2024-02-26T08:46:16;98952.25;;;7.68;100.00
73700;BME280;62005;50.082;8.988;2024-02-26T08:48:41;98950.59;;;7.67;100.00
73700;BME280;62005;50.082;8.988;2024-02-26T08:51:07;98956.19;;;7.77;100.00
73700;BME280;62005;50.082;8.988;2024-02-26T08:53:34;98954.56;;;7.76;100.00
73700;BME280;62005;50.082;8.988;2024-02-26T08:55:59;98957.81;;;7.78;100.00
73700;BME280;62005;50.082;8.988;2024-02-26T08:58:27;98949.19;;;7.76;100.00
73700;BME280;62005;50.082;8.988;2024-02-26T09:00:52;98964.38;;;7.82;100.00
73700;BME280;62005;50.082;8.988;2024-02-26T09:03:18;98953.59;;;7.82;100.00
73700;BME280;62005;50.082;8.988;2024-02-26T09:05:43;98956.41;;;7.87;100.00
73700;BME280;62005;50.082;8.988;2024-02-26T09:08:08;98956.88;;;7.84;100.00
73700;BME280;62005;50.082;8.988;2024-02-26T09:10:34;98962.94;;;7.91;100.00
73700;BME280;62005;50.082;8.988;2024-02-26T09:12:59;98959.19;;;7.92;100.00
73700;BME280;62005;50.082;8.988;2024-02-26T09:15:25;98954.28;;;7.89;100.00
73700;BME280;62005;50.082;8.988;2024-02-26T09:17:50;98969.47;;;7.95;100.00
73700;BME280;62005;50.082;8.988;2024-02-26T09:20:17;98971.91;;;7.97;100.00
73700;BME280;62005;50.082;8.988;2024-02-26T09:22:46;98960.00;;;7.93;100.00
73700;BME280;62005;50.082;8.988;2024-02-26T09:25:12;98973.41;;;8.05;100.00
73700;BME280;62005;50.082;8.988;2024-02-26T09:27:37;98968.31;;;7.91;100.00
73700;BME280;62005;50.082;8.988;2024-02-26T09:30:03;98965.38;;;7.93;100.00
73700;BME280;62005;50.082;8.988;2024-02-26T09:32:29;98954.63;;;7.93;100.00
73700;BME280;62005;50.082;8.988;2024-02-26T09:34:55;98970.44;;;7.89;100.00
73700;BME280;62005;50.082;8.988;2024-02-26T09:37:21;98952.63;;;7.88;100.00
73700;BME280;62005;50.082;8.988;2024-02-26T09:39:46;98977.28;;;7.97;100.00
73700;BME280;62005;50.082;8.988;2024-02-26T09:42:12;98992.16;;;8.00;100.00
73700;BME280;62005;50.082;8.988;2024-02-26T09:44:40;98995.41;;;8.02;100.00
73700;BME280;62005;50.082;8.988;2024-02-26T09:47:09;98987.25;;;7.97;100.00
73700;BME280;62005;50.082;8.988;2024-02-26T09:49:36;98983.50;;;7.97;100.00
73700;BME280;62005;50.082;8.988;2024-02-26T09:52:04;98986.78;;;8.00;100.00
73700;BME280;62005;50.082;8.988;2024-02-26T09:54:30;98992.16;;;8.00;100.00
73700;BME280;62005;50.082;8.988;2024-02-26T09:56:59;98994.59;;;8.01;100.00
73700;BME280;62005;50.082;8.988;2024-02-26T09:59:26;98988.19;;;7.90;100.00
73700;BME280;62005;50.082;8.988;2024-02-26T10:01:53;98984.47;;;7.91;100.00
73700;BME280;62005;50.082;8.988;2024-02-26T10:04:19;99008.78;;;7.97;100.00
73700;BME280;62005;50.082;8.988;2024-02-26T10:06:46;98998.97;;;7.90;100.00
73700;BME280;62005;50.082;8.988;2024-02-26T10:09:12;99009.72;;;7.90;100.00
73700;BME280;62005;50.082;8.988;2024-02-26T10:11:38;98997.81;;;7.86;100.00
73700;BME280;62005;50.082;8.988;2024-02-26T10:14:05;99015.78;;;7.97;100.00
73700;BME280;62005;50.082;8.988;2024-02-26T10:16:31;99008.56;;;7.86;100.00
73700;BME280;62005;50.082;8.988;2024-02-26T10:18:58;99013.00;;;7.92;100.00
73700;BME280;62005;50.082;8.988;2024-02-26T10:21:24;99017.88;;;7.95;100.00
73700;BME280;62005;50.082;8.988;2024-02-26T10:23:49;99017.41;;;7.98;100.00
73700;BME280;62005;50.082;8.988;2024-02-26T10:26:18;99015.78;;;7.97;100.00
73700;BME280;62005;50.082;8.988;2024-02-26T10:28:45;99011.69;;;7.95;100.00
73700;BME280;62005;50.082;8.988;2024-02-26T10:31:11;99013.34;;;7.96;100.00
73700;BME280;62005;50.082;8.988;2024-02-26T10:33:37;99018.91;;;8.06;100.00
73700;BME280;62005;50.082;8.988;2024-02-26T10:36:07;99019.25;;;8.10;100.00
73700;BME280;62005;50.082;8.988;2024-02-26T10:38:36;99022.06;;;8.15;100.00
73700;BME280;62005;50.082;8.988;2024-02-26T10:41:03;99003.56;;;8.07;100.00
73700;BME280;62005;50.082;8.988;2024-02-26T10:43:29;99003.13;;;8.10;100.00
73700;BME280;62005;50.082;8.988;2024-02-26T10:45:55;99015.59;;;8.16;100.00
73700;BME280;62005;50.082;8.988;2024-02-26T10:48:21;99013.88;;;8.10;100.00
73700;BME280;62005;50.082;8.988;2024-02-26T10:50:47;99026.47;;;8.21;100.00
73700;BME280;62005;50.082;8.988;2024-02-26T10:53:16;99023.91;;;8.26;100.00
73700;BME280;62005;50.082;8.988;2024-02-26T10:55:46;99027.28;;;8.33;100.00
73700;BME280;62005;50.082;8.988;2024-02-26T10:58:13;99016.91;;;8.25;100.00
73700;BME280;62005;50.082;8.988;2024-02-26T11:00:39;99020.81;;;8.34;100.00
73700;BME280;62005;50.082;8.988;2024-02-26T11:03:06;99029.47;;;8.36;100.00
73700;BME280;62005;50.082;8.988;2024-02-26T11:05:35;99041.38;;;8.40;100.00
73700;BME280;62005;50.082;8.988;2024-02-26T11:08:02;99039.28;;;8.42;100.00
73700;BME280;62005;50.082;8.988;2024-02-26T11:10:29;99039.97;;;8.49;100.00
73700;BME280;62005;50.082;8.988;2024-02-26T11:12:55;99040.16;;;8.59;100.00
73700;BME280;62005;50.082;8.988;2024-02-26T11:15:22;99048.81;;;8.61;100.00
73700;BME280;62005;50.082;8.988;2024-02-26T11:17:47;99009.41;;;8.43;100.00
73700;BME280;62005;50.082;8.988;2024-02-26T11:20:13;99035.88;;;8.63;100.00
73700;BME280;62005;50.082;8.988;2024-02-26T11:22:40;99035.44;;;8.66;100.00
73700;BME280;62005;50.082;8.988;2024-02-26T11:25:06;99042.63;;;8.77;100.00
73700;BME280;62005;50.082;8.988;2024-02-26T11:27:39;99056.19;;;8.82;100.00
73700;BME280;62005;50.082;8.988;2024-02-26T11:30:12;99023.84;;;8.82;100.00
73700;BME280;62005;50.082;8.988;2024-02-26T11:32:38;99035.91;;;8.96;100.00
73700;BME280;62005;50.082;8.988;2024-02-26T11:35:07;99033.81;;;8.98;100.00
73700;BME280;62005;50.082;8.988;2024-02-26T11:37:35;99026.31;;;9.00;100.00
73700;BME280;62005;50.082;8.988;2024-02-26T11:40:01;99019.28;;;8.99;100.00
73700;BME280;62005;50.082;8.988;2024-02-26T11:42:27;99023.34;;;9.01;100.00
73700;BME280;62005;50.082;8.988;2024-02-26T11:44:54;99037.41;;;9.03;100.00
73700;BME280;62005;50.082;8.988;2024-02-26T11:47:21;99047.03;;;9.16;100.00
73700;BME280;62005;50.082;8.988;2024-02-26T11:49:47;99054.72;;;9.24;100.00
73700;BME280;62005;50.082;8.988;2024-02-26T11:52:14;99045.06;;;9.28;100.00
73700;BME280;62005;50.082;8.988;2024-02-26T11:57:37;99048.97;;;9.37;100.00
73700;BME280;62005;50.082;8.988;2024-02-26T12:02:43;99055.34;;;9.48;100.00
73700;BME280;62005;50.082;8.988;2024-02-26T12:05:18;99046.50;;;9.52;100.00
73700;BME280;62005;50.082;8.988;2024-02-26T12:08:09;99040.63;;;9.55;100.00
73700;BME280;62005;50.082;8.988;2024-02-26T12:10:38;99040.22;;;9.63;100.00
73700;BME280;62005;50.082;8.988;2024-02-26T12:13:13;99043.53;;;9.70;100.00
73700;BME280;62005;50.082;8.988;2024-02-26T12:15:41;99041.41;;;9.72;100.00
73700;BME280;62005;50.082;8.988;2024-02-26T12:18:08;99036.00;;;9.72;100.00
73700;BME280;62005;50.082;8.988;2024-02-26T12:20:35;99042.69;;;9.86;100.00
73700;BME280;62005;50.082;8.988;2024-02-26T12:23:01;99055.66;;;9.89;100.00
73700;BME280;62005;50.082;8.988;2024-02-26T12:25:28;99047.63;;;9.94;100.00
73700;BME280;62005;50.082;8.988;2024-02-26T12:27:54;99057.88;;;9.92;100.00
73700;BME280;62005;50.082;8.988;2024-02-26T12:30:21;99052.78;;;9.96;100.00
73700;BME280;62005;50.082;8.988;2024-02-26T12:32:48;99049.31;;;10.00;100.00
73700;BME280;62005;50.082;8.988;2024-02-26T12:35:13;99042.88;;;10.01;100.00
73700;BME280;62005;50.082;8.988;2024-02-26T12:37:39;99039.66;;;10.04;100.00
73700;BME280;62005;50.082;8.988;2024-02-26T12:40:06;99049.97;;;10.07;100.00
73700;BME280;62005;50.082;8.988;2024-02-26T12:42:34;99050.97;;;10.01;99.36
73700;BME280;62005;50.082;8.988;2024-02-26T12:45:08;99071.56;;;10.07;99.67
73700;BME280;62005;50.082;8.988;2024-02-26T12:47:45;99066.66;;;10.04;98.95
73700;BME280;62005;50.082;8.988;2024-02-26T12:50:15;99060.28;;;10.10;99.48
73700;BME280;62005;50.082;8.988;2024-02-26T12:52:45;99053.25;;;10.09;99.98
73700;BME280;62005;50.082;8.988;2024-02-26T12:55:14;99063.69;;;10.22;100.00
73700;BME280;62005;50.082;8.988;2024-02-26T12:57:41;99065.81;;;10.20;99.12
73700;BME280;62005;50.082;8.988;2024-02-26T13:00:12;99074.47;;;10.22;97.77
73700;BME280;62005;50.082;8.988;2024-02-26T13:02:38;99072.94;;;10.31;98.82
73700;BME280;62005;50.082;8.988;2024-02-26T13:05:06;99054.50;;;10.23;99.26
73700;BME280;62005;50.082;8.988;2024-02-26T13:07:32;99076.34;;;10.43;99.26
73700;BME280;62005;50.082;8.988;2024-02-26T13:09:58;99085.31;;;10.49;99.03